Tropical Cyclones
[Index]
Main Index Home Page Stock Weather Photos Extreme Storms Discussion Storm News and Storm Chasing Reports Tropical Cyclones / Hurricanes / Typhoons Weather Data and Links Wild Fires / Bushfires Weather Observation Techniques Weather Picture Catalogue Tornado Pictures and Reports Stock Video Footage and DVDs for sale
Season 1973-1974 Tropical Cyclone BERYL Track Map
Season 1973-1974 Summaries: [BoM-AU] [JTWC-AU] [JTWC-SIO] [JTWC-SPAC] [JTWC-SH]
<<- Previous TC | BoM 1973-1974 Season | Next TC ->>

click for intensity scale information  Lat/long Grid: Show Hide

 Date Labels: Show Hide

Bureau of Meteorology Tropical Cyclone Data

Name: BERYL
Number: 513 / 197374_03

26 Nov 1973 01:00 UTC to 04 Dec 1973 01:00 UTC

    date/time    lat    long    hPa   cat  kts
1973-11-26 01   10.1   116.4   1007                     
1973-11-26 04   10.1   116.4   1005                     
1973-11-26 07   10.2   116.5   1002                     
1973-11-26 10   10.2   116.6   1003                     
1973-11-26 13   10.2   116.7   1004                     
1973-11-26 16   10.3   116.7   1005                     
1973-11-26 19   10.3   116.8   1004                     
1973-11-26 22   10.3   116.7   1004                     
1973-11-27 01   10.4   116.9   1004                     
1973-11-27 04   10.4   117.0   1002                     
1973-11-27 07   10.5   117.0    999                     
1973-11-27 10   10.5   117.1    998                     
1973-11-27 13   10.6   117.1    997                     
1973-11-27 16   10.6   117.2    996                     
1973-11-27 19   10.7   117.2    994    1                
1973-11-27 22   10.7   117.3    994    1                
1973-11-28 01   10.8   117.2    994    1                
1973-11-28 04   10.8   117.4    992    1                
1973-11-28 07   10.9   117.5    989    1                
1973-11-28 10   10.9   117.6    989    1                
1973-11-28 13   10.8   117.7    990    1                
1973-11-28 16   10.8   117.8    989    1                
1973-11-28 19   10.8   117.9    988    1                
1973-11-28 22   10.7   118.0    988    1                
1973-11-29 01   10.7   118.1    988    1                
1973-11-29 04   10.7   118.1    986    1                
1973-11-29 10   10.8   118.3    983    2                
1973-11-29 13   10.8   118.1    983    2                
1973-11-29 16   10.8   118.4    982    2                
1973-11-29 19   10.9   118.4    981    2                
1973-11-29 22   10.9   118.5    981    2                
1973-11-30 01   11.0   118.5    981    2                
1973-11-30 04   11.1   118.4    979    2                
1973-11-30 07   11.3   118.2    976    2                
1973-11-30 10   11.6   118.0    976    2                
1973-11-30 13   11.9   117.9    976    2                
1973-11-30 16   12.2   117.5    975    2                
1973-11-30 19   12.5   117.2    973    2                
1973-11-30 22   12.8   116.9    973    2                
1973-12-01 01   13.2   116.6    973    2                
1973-12-01 04   13.5   116.3    973    2                
1973-12-01 07   13.8   116.0    973    2                
1973-12-01 10   14.2   115.7    973    2                
1973-12-01 13   14.6   115.4    973    2                
1973-12-01 16   15.0   115.1    973    2                
1973-12-01 19   15.4   114.8    973    2                
1973-12-01 22   15.8   114.5    973    2                
1973-12-02 01   16.2   114.1    973    2                
1973-12-02 04   16.6   114.0    974    2                
1973-12-02 07   17.0   114.0    975    2                
1973-12-02 10   17.4   114.0    978    2                
1973-12-02 13   17.8   114.0    983    2                
1973-12-02 16   18.3   114.0    986    1                
1973-12-02 19   18.8   114.0    986    1                
1973-12-02 22   19.3   114.0    987    1                
1973-12-03 01   19.8   114.0    988    1                
1973-12-03 04   20.3   114.0    989    1                
1973-12-03 07   20.8   113.9    990    1                
1973-12-03 10   21.4   113.9    994    1                
1973-12-03 13   21.9   113.8    998                     
1973-12-03 15   22.2   113.7   1001                     
1973-12-03 16   22.4   113.7   1002                     
1973-12-03 19   22.9   113.7   1002                     
1973-12-03 22   23.3   113.9   1004                     
1973-12-04 01   23.5   114.1   1005                     
Winds are 10-min average.

Tropical cyclone tracks developed by Michael Bath using data from the Bureau of Meteorology and Google Maps.


[Australian Severe Weather index] [Copyright Notice] [Email Contacts] [Search This Site] [Privacy Policy]
Document: tropical_cyclone_beryl.htm Updated: 30 May 2013